createdAt,value
2023-01-19T00:01:29.517Z,100995.64
2023-01-19T00:03:57.883Z,100994.20
2023-01-19T00:06:26.315Z,100996.59
2023-01-19T00:08:54.888Z,100994.42
2023-01-19T00:11:23.822Z,100991.84
2023-01-19T00:13:52.010Z,100993.80
2023-01-19T00:16:21.841Z,100994.68
2023-01-19T00:18:51.919Z,100992.41
2023-01-19T00:21:21.310Z,100983.52
2023-01-19T00:23:49.623Z,100983.10
2023-01-19T00:26:18.495Z,100976.84
2023-01-19T00:28:46.621Z,100982.31
2023-01-19T00:31:15.473Z,100986.27
2023-01-19T00:33:44.052Z,100982.78
2023-01-19T00:36:12.339Z,100986.01
2023-01-19T00:38:40.612Z,100982.35
2023-01-19T00:41:08.858Z,100982.13
2023-01-19T00:43:37.052Z,100988.77
2023-01-19T00:46:05.385Z,100987.23
2023-01-19T00:48:33.866Z,100992.09
2023-01-19T00:51:02.019Z,100992.04
2023-01-19T00:53:30.333Z,100991.70
2023-01-19T00:55:59.265Z,100989.03
2023-01-19T00:58:27.394Z,101002.36
2023-01-19T01:00:55.651Z,101002.27
2023-01-19T01:03:24.002Z,101006.71
2023-01-19T01:05:52.140Z,101003.67
2023-01-19T01:08:20.281Z,101004.69
2023-01-19T01:10:48.550Z,101017.55
2023-01-19T01:13:21.301Z,101016.02
2023-01-19T01:15:55.570Z,101023.36
2023-01-19T01:18:24.465Z,101024.95
2023-01-19T01:20:55.248Z,101025.77
2023-01-19T01:23:24.738Z,101025.34
2023-01-19T01:25:53.383Z,101025.08
2023-01-19T01:28:21.596Z,101035.86
2023-01-19T01:30:54.903Z,101044.74
2023-01-19T01:33:40.884Z,101057.24
2023-01-19T01:36:11.961Z,101066.94
2023-01-19T01:38:41.399Z,101070.16
2023-01-19T01:41:09.968Z,101072.70
2023-01-19T01:43:48.606Z,101080.16
2023-01-19T01:46:18.234Z,101086.74
2023-01-19T01:48:57.451Z,101087.63
2023-01-19T01:51:37.464Z,101095.36
2023-01-19T01:54:18.390Z,101097.20
2023-01-19T01:56:55.854Z,101102.42
2023-01-19T01:59:31.234Z,101110.27
2023-01-19T02:02:05.042Z,101111.41
2023-01-19T02:04:33.591Z,101119.75
2023-01-19T02:07:02.328Z,101129.27
2023-01-19T02:09:33.674Z,101131.89
2023-01-19T02:12:01.859Z,101141.86
2023-01-19T02:14:29.986Z,101145.98
2023-01-19T02:16:58.452Z,101143.86
2023-01-19T02:19:33.160Z,101152.80
2023-01-19T02:22:20.515Z,101163.18
2023-01-19T02:24:49.621Z,101163.12
2023-01-19T02:27:18.374Z,101162.10
2023-01-19T02:29:46.746Z,101168.14
2023-01-19T02:32:16.317Z,101163.98
2023-01-19T02:34:44.505Z,101160.52
2023-01-19T02:37:16.350Z,101165.88
2023-01-19T02:39:54.899Z,101174.06
2023-01-19T02:42:34.173Z,101173.29
2023-01-19T02:45:04.992Z,101179.05
2023-01-19T02:47:44.750Z,101196.55
2023-01-19T02:50:37.918Z,101201.88
2023-01-19T02:53:19.025Z,101206.27
2023-01-19T02:55:55.488Z,101213.09
2023-01-19T02:58:34.094Z,101211.00
2023-01-19T03:01:47.447Z,101220.55
2023-01-19T03:04:31.470Z,101220.53
2023-01-19T03:07:09.468Z,101220.30
2023-01-19T03:09:50.177Z,101220.61
2023-01-19T03:12:31.295Z,101217.55
2023-01-19T03:15:05.360Z,101219.86
2023-01-19T03:17:36.183Z,101214.87
2023-01-19T03:20:08.996Z,101216.16
2023-01-19T03:22:37.069Z,101211.94
2023-01-19T03:25:06.925Z,101211.09
2023-01-19T03:27:40.168Z,101209.58
2023-01-19T03:30:16.092Z,101216.54
2023-01-19T03:33:03.598Z,101217.47
2023-01-19T03:35:35.748Z,101223.13
2023-01-19T03:38:07.853Z,101239.36
2023-01-19T03:40:36.829Z,101243.29
2023-01-19T03:43:06.501Z,101258.48
2023-01-19T03:45:38.595Z,101258.30
2023-01-19T03:48:07.954Z,101265.34
2023-01-19T03:50:36.247Z,101263.00
2023-01-19T03:53:14.611Z,101268.44
2023-01-19T03:55:46.667Z,101274.20
2023-01-19T03:58:18.238Z,101266.56
2023-01-19T04:00:46.365Z,101268.60
2023-01-19T04:03:16.798Z,101271.42
2023-01-19T04:05:46.046Z,101270.95
2023-01-19T04:08:14.243Z,101270.95
2023-01-19T04:10:42.548Z,101278.36
2023-01-19T04:13:11.152Z,101269.29
2023-01-19T04:15:39.673Z,101270.08
2023-01-19T04:18:09.136Z,101274.38
2023-01-19T04:20:37.972Z,101270.30
2023-01-19T04:23:06.174Z,101271.45
2023-01-19T04:25:34.339Z,101272.95
2023-01-19T04:28:02.789Z,101267.23
2023-01-19T04:30:30.960Z,101265.90
2023-01-19T04:33:00.102Z,101258.50
2023-01-19T04:35:28.773Z,101263.23
2023-01-19T04:37:57.179Z,101270.49
2023-01-19T04:40:25.324Z,101259.20
2023-01-19T04:42:56.108Z,101259.89
2023-01-19T04:45:24.397Z,101263.29
2023-01-19T04:47:52.728Z,101271.41
2023-01-19T04:50:21.148Z,101253.64
2023-01-19T04:52:49.313Z,101257.27
2023-01-19T04:55:18.133Z,101249.09
2023-01-19T04:57:47.941Z,101248.52
2023-01-19T05:00:17.465Z,101249.05
2023-01-19T05:02:45.738Z,101249.59
2023-01-19T05:05:14.318Z,101251.56
2023-01-19T05:07:43.747Z,101238.57
2023-01-19T05:10:12.811Z,101242.10
2023-01-19T05:12:41.134Z,101249.96
2023-01-19T05:15:10.116Z,101248.89
2023-01-19T05:17:38.492Z,101246.77
2023-01-19T05:20:07.999Z,101244.79
2023-01-19T05:22:36.249Z,101243.09
2023-01-19T05:25:04.692Z,101247.92
2023-01-19T05:27:33.095Z,101252.70
2023-01-19T05:30:01.576Z,101259.90
2023-01-19T05:32:29.829Z,101262.97
2023-01-19T05:34:58.116Z,101266.73
2023-01-19T05:37:26.482Z,101259.27
2023-01-19T05:39:54.774Z,101255.48
2023-01-19T05:42:23.051Z,101269.26
2023-01-19T05:44:51.445Z,101273.23
2023-01-19T05:47:19.666Z,101276.36
2023-01-19T05:49:48.374Z,101274.80
2023-01-19T05:52:16.689Z,101265.55
2023-01-19T05:54:44.945Z,101274.24
2023-01-19T05:57:13.300Z,101270.34
2023-01-19T05:59:41.495Z,101271.97
2023-01-19T06:02:09.616Z,101265.64
2023-01-19T06:04:37.886Z,101269.52
2023-01-19T06:07:06.667Z,101283.80
2023-01-19T06:09:34.897Z,101286.64
2023-01-19T06:12:03.946Z,101282.06
2023-01-19T06:14:32.072Z,101301.01
2023-01-19T06:17:00.624Z,101305.34
2023-01-19T06:19:29.244Z,101318.29
2023-01-19T06:21:57.441Z,101325.63
2023-01-19T06:24:25.651Z,101321.98
2023-01-19T06:26:53.957Z,101333.31
2023-01-19T06:29:22.268Z,101333.56
2023-01-19T06:31:51.022Z,101348.29
2023-01-19T06:34:20.431Z,101349.20
2023-01-19T06:36:48.625Z,101355.67
2023-01-19T06:39:17.070Z,101351.02
2023-01-19T06:41:45.337Z,101362.29
2023-01-19T06:44:13.723Z,101356.04
2023-01-19T06:46:41.917Z,101362.33
2023-01-19T06:49:10.345Z,101361.40
2023-01-19T06:51:38.763Z,101358.81
2023-01-19T06:54:06.907Z,101370.89
2023-01-19T06:56:35.190Z,101375.19
2023-01-19T06:59:03.567Z,101382.16
2023-01-19T07:01:32.418Z,101383.11
2023-01-19T07:04:01.122Z,101377.65
2023-01-19T07:06:29.433Z,101381.29
2023-01-19T07:08:58.020Z,101386.08
2023-01-19T07:11:33.006Z,101382.92
2023-01-19T07:14:01.733Z,101388.05
2023-01-19T07:16:30.122Z,101394.74
2023-01-19T07:18:58.340Z,101389.08
2023-01-19T07:21:29.096Z,101395.39
2023-01-19T07:23:57.609Z,101393.16
2023-01-19T07:26:25.854Z,101407.00
2023-01-19T07:28:54.204Z,101412.02
2023-01-19T07:31:23.017Z,101412.00
2023-01-19T07:33:51.329Z,101416.66
2023-01-19T07:36:19.508Z,101416.24
2023-01-19T07:38:47.894Z,101427.39
2023-01-19T07:41:16.258Z,101426.86
2023-01-19T07:43:44.509Z,101424.27
2023-01-19T07:46:13.235Z,101437.84
2023-01-19T07:48:41.491Z,101444.70
2023-01-19T07:51:12.740Z,101450.51
2023-01-19T07:53:41.565Z,101450.83
2023-01-19T07:56:11.152Z,101451.70
2023-01-19T07:58:40.073Z,101451.15
2023-01-19T08:01:10.361Z,101456.52
2023-01-19T08:03:39.409Z,101457.77
2023-01-19T08:06:20.299Z,101460.67
2023-01-19T08:08:48.605Z,101460.67
2023-01-19T08:11:17.846Z,101470.64
2023-01-19T08:13:46.762Z,101475.02
2023-01-19T08:16:15.030Z,101486.54
2023-01-19T08:18:44.034Z,101482.52
2023-01-19T08:21:12.386Z,101489.61
2023-01-19T08:23:40.752Z,101484.63
2023-01-19T08:26:27.306Z,101493.97
2023-01-19T08:28:58.172Z,101494.93
2023-01-19T08:31:27.403Z,101504.59
2023-01-19T08:33:55.819Z,101500.66
2023-01-19T08:36:24.099Z,101511.08
2023-01-19T08:38:53.395Z,101512.13
2023-01-19T08:41:21.854Z,101518.80
2023-01-19T08:43:50.456Z,101518.41
2023-01-19T08:46:19.387Z,101519.90
2023-01-19T08:48:47.977Z,101519.10
2023-01-19T08:51:17.144Z,101525.14
2023-01-19T08:53:45.912Z,101534.02
2023-01-19T08:56:14.447Z,101546.21
2023-01-19T08:58:45.704Z,101548.00
2023-01-19T09:01:15.007Z,101559.40
2023-01-19T09:03:44.429Z,101560.04
2023-01-19T09:06:16.025Z,101561.42
2023-01-19T09:08:44.547Z,101557.16
2023-01-19T09:11:14.881Z,101561.98
2023-01-19T09:13:43.663Z,101560.76
2023-01-19T09:16:12.093Z,101557.42
2023-01-19T09:18:40.521Z,101559.20
2023-01-19T09:21:10.200Z,101566.06
2023-01-19T09:23:38.514Z,101563.91
2023-01-19T09:26:06.782Z,101557.61
2023-01-19T09:28:35.111Z,101557.70
2023-01-19T09:31:08.429Z,101555.70
2023-01-19T09:33:37.522Z,101550.48
2023-01-19T09:36:06.435Z,101557.74
2023-01-19T09:38:35.291Z,101555.64
2023-01-19T09:41:03.667Z,101549.79
2023-01-19T09:43:43.898Z,101552.33
2023-01-19T09:46:27.904Z,101553.98
2023-01-19T09:49:03.353Z,101548.65
2023-01-19T09:51:38.478Z,101545.39
2023-01-19T09:54:23.387Z,101553.84
2023-01-19T09:56:53.735Z,101557.61
2023-01-19T09:59:25.345Z,101558.05
2023-01-19T10:02:23.050Z,101557.53
2023-01-19T10:05:02.921Z,101558.55
2023-01-19T10:07:59.717Z,101559.29
2023-01-19T10:10:31.657Z,101569.98
2023-01-19T10:13:22.542Z,101564.61
2023-01-19T10:16:21.165Z,101567.85
2023-01-19T10:18:53.064Z,101567.27
2023-01-19T10:21:39.375Z,101571.71
2023-01-19T10:24:29.634Z,101572.92
2023-01-19T10:26:58.005Z,101577.17
2023-01-19T10:29:33.854Z,101572.37
2023-01-19T10:32:07.415Z,101572.26
2023-01-19T10:34:36.587Z,101566.80
2023-01-19T10:37:22.106Z,101569.04
2023-01-19T10:39:57.490Z,101574.54
2023-01-19T10:42:29.874Z,101570.56
2023-01-19T10:44:58.817Z,101569.65
2023-01-19T10:47:34.794Z,101572.15
2023-01-19T10:50:24.909Z,101570.14
2023-01-19T10:53:36.178Z,101570.36
2023-01-19T10:56:23.626Z,101566.45
2023-01-19T10:58:52.436Z,101558.71
2023-01-19T11:01:26.957Z,101560.32
2023-01-19T11:03:56.095Z,101562.72
2023-01-19T11:06:28.152Z,101550.60
2023-01-19T11:09:21.358Z,101544.30
2023-01-19T11:11:52.503Z,101544.73
2023-01-19T11:14:24.660Z,101539.23
2023-01-19T11:16:58.373Z,101530.23
2023-01-19T11:19:28.194Z,101525.87
2023-01-19T11:22:25.842Z,101526.08
2023-01-19T11:24:58.849Z,101522.60
2023-01-19T11:27:28.320Z,101516.33
2023-01-19T11:30:24.506Z,101518.64
2023-01-19T11:32:56.445Z,101512.84
2023-01-19T11:35:35.443Z,101522.08
2023-01-19T11:38:13.772Z,101514.03
2023-01-19T11:40:47.566Z,101513.41
2023-01-19T11:43:16.883Z,101511.33
2023-01-19T11:45:46.286Z,101507.26
2023-01-19T11:48:27.732Z,101499.73
2023-01-19T11:51:01.251Z,101498.91
2023-01-19T11:53:34.114Z,101499.65
2023-01-19T11:56:15.237Z,101494.29
2023-01-19T11:58:45.368Z,101488.73
2023-01-19T12:01:22.446Z,101493.01
2023-01-19T12:04:05.639Z,101496.15
2023-01-19T12:06:39.637Z,101490.17
2023-01-19T12:09:14.065Z,101492.19
2023-01-19T12:11:49.187Z,101488.44
2023-01-19T12:14:23.347Z,101490.38
2023-01-19T12:16:55.409Z,101493.92
2023-01-19T12:19:43.366Z,101490.03
2023-01-19T12:22:17.901Z,101486.86
2023-01-19T12:25:01.184Z,101487.81
2023-01-19T12:27:43.832Z,101481.64
2023-01-19T12:30:32.681Z,101475.79
2023-01-19T12:33:35.409Z,101470.47
2023-01-19T12:36:27.001Z,101475.48
2023-01-19T12:39:22.733Z,101459.61
2023-01-19T12:42:16.236Z,101465.59
2023-01-19T12:44:49.252Z,101463.17
2023-01-19T12:47:24.142Z,101459.15
2023-01-19T12:49:56.826Z,101446.06
2023-01-19T12:52:48.906Z,101444.58
2023-01-19T12:55:31.648Z,101442.68
2023-01-19T12:58:13.973Z,101441.54
2023-01-19T13:00:44.959Z,101433.42
2023-01-19T13:03:25.759Z,101429.67
2023-01-19T13:05:55.915Z,101424.30
2023-01-19T13:08:49.698Z,101422.13
2023-01-19T13:11:20.119Z,101408.67
2023-01-19T13:14:18.038Z,101398.36
2023-01-19T13:16:57.806Z,101388.85
2023-01-19T13:19:37.401Z,101375.77
2023-01-19T13:22:43.355Z,101362.23
2023-01-19T13:25:21.668Z,101364.51
2023-01-19T13:27:50.341Z,101356.77
2023-01-19T13:30:22.428Z,101354.59
2023-01-19T13:32:51.621Z,101337.17
2023-01-19T13:35:21.172Z,101344.41
2023-01-19T13:37:51.502Z,101346.44
2023-01-19T13:40:26.467Z,101336.61
2023-01-19T13:42:55.087Z,101336.69
2023-01-19T13:45:31.835Z,101334.77
2023-01-19T13:48:03.124Z,101330.73
2023-01-19T13:50:34.219Z,101331.54
2023-01-19T13:53:02.623Z,101329.52
2023-01-19T13:55:32.083Z,101322.59
2023-01-19T13:58:00.662Z,101319.94
2023-01-19T14:00:30.403Z,101320.66
2023-01-19T14:03:14.123Z,101316.15
2023-01-19T14:05:44.282Z,101323.49
2023-01-19T14:08:14.720Z,101311.38
2023-01-19T14:10:48.125Z,101311.47
2023-01-19T14:13:23.090Z,101310.83
2023-01-19T14:15:56.692Z,101315.44
2023-01-19T14:18:28.221Z,101313.09
2023-01-19T14:21:06.192Z,101311.00
2023-01-19T14:23:48.952Z,101303.96
2023-01-19T14:26:52.311Z,101300.98
2023-01-19T14:29:34.400Z,101290.58
2023-01-19T14:32:18.036Z,101293.32
2023-01-19T14:34:51.091Z,101291.21
2023-01-19T14:37:32.933Z,101294.14
2023-01-19T14:40:16.999Z,101294.14
2023-01-19T14:42:59.906Z,101286.42
2023-01-19T14:45:34.318Z,101280.21
2023-01-19T14:48:19.651Z,101279.90
2023-01-19T14:51:02.508Z,101275.96
2023-01-19T14:53:37.591Z,101273.38
2023-01-19T14:56:07.105Z,101267.89
2023-01-19T14:58:36.107Z,101257.42
2023-01-19T15:01:05.733Z,101253.16
2023-01-19T15:03:44.418Z,101251.70
2023-01-19T15:06:19.092Z,101246.56
2023-01-19T15:08:48.179Z,101237.47
2023-01-19T15:11:26.055Z,101231.83
2023-01-19T15:13:54.715Z,101233.09
2023-01-19T15:16:28.199Z,101226.50
2023-01-19T15:18:56.932Z,101225.05
2023-01-19T15:21:25.156Z,101225.86
2023-01-19T15:23:55.111Z,101219.98
2023-01-19T15:26:25.554Z,101214.09
2023-01-19T15:28:56.512Z,101213.21
2023-01-19T15:31:27.754Z,101212.18
2023-01-19T15:33:57.406Z,101210.48
2023-01-19T15:36:27.430Z,101213.77
2023-01-19T15:38:56.325Z,101210.65
2023-01-19T15:41:29.522Z,101208.55
2023-01-19T15:44:01.469Z,101205.65
2023-01-19T15:46:29.912Z,101203.95
2023-01-19T15:48:59.255Z,101199.84
2023-01-19T15:51:28.218Z,101199.77
2023-01-19T15:53:57.937Z,101199.20
2023-01-19T15:56:29.166Z,101201.38
2023-01-19T15:58:58.935Z,101200.39
2023-01-19T16:01:29.526Z,101207.30
2023-01-19T16:04:05.567Z,101205.74
2023-01-19T16:06:35.142Z,101204.48
2023-01-19T16:09:03.856Z,101200.21
2023-01-19T16:11:34.221Z,101200.42
2023-01-19T16:14:02.766Z,101200.33
2023-01-19T16:16:31.222Z,101196.75
2023-01-19T16:18:59.719Z,101204.02
2023-01-19T16:21:28.636Z,101200.54
2023-01-19T16:23:57.157Z,101195.77
2023-01-19T16:26:34.100Z,101197.01
2023-01-19T16:29:06.002Z,101194.58
2023-01-19T16:31:38.877Z,101187.36
2023-01-19T16:34:08.854Z,101190.57
2023-01-19T16:36:41.018Z,101182.38
2023-01-19T16:39:15.115Z,101178.63
2023-01-19T16:41:48.448Z,101176.44
2023-01-19T16:44:20.546Z,101169.04
2023-01-19T16:46:49.145Z,101169.94
2023-01-19T16:49:22.241Z,101163.33
2023-01-19T16:51:51.909Z,101160.23
2023-01-19T16:54:22.487Z,101165.09
2023-01-19T16:56:51.129Z,101164.58
2023-01-19T16:59:21.203Z,101165.84
2023-01-19T17:01:50.959Z,101167.57
2023-01-19T17:04:21.603Z,101168.54
2023-01-19T17:06:50.003Z,101171.42
2023-01-19T17:09:20.112Z,101169.50
2023-01-19T17:11:48.438Z,101166.39
2023-01-19T17:14:20.857Z,101161.69
2023-01-19T17:16:50.414Z,101152.05
2023-01-19T17:19:20.424Z,101155.11
2023-01-19T17:21:49.491Z,101147.93
2023-01-19T17:24:18.613Z,101145.71
2023-01-19T17:26:47.538Z,101139.23
2023-01-19T17:29:16.442Z,101136.27
2023-01-19T17:31:45.423Z,101135.98
2023-01-19T17:34:16.038Z,101129.70
2023-01-19T17:36:44.767Z,101128.19
2023-01-19T17:39:14.314Z,101123.04
2023-01-19T17:41:42.880Z,101110.17
2023-01-19T17:44:11.520Z,101113.55
2023-01-19T17:46:40.256Z,101110.27
2023-01-19T17:49:08.769Z,101109.54
2023-01-19T17:51:37.466Z,101101.69
2023-01-19T17:54:06.173Z,101086.09
2023-01-19T17:56:35.394Z,101082.55
2023-01-19T17:59:05.071Z,101075.86
2023-01-19T18:01:37.619Z,101069.52
2023-01-19T18:04:08.109Z,101061.95
2023-01-19T18:06:37.241Z,101065.20
2023-01-19T18:09:06.494Z,101064.77
2023-01-19T18:11:36.158Z,101071.07
2023-01-19T18:14:05.831Z,101069.56
2023-01-19T18:16:34.910Z,101058.81
2023-01-19T18:19:03.422Z,101062.96
2023-01-19T18:21:31.845Z,101067.67
2023-01-19T18:24:02.552Z,101076.55
2023-01-19T18:26:32.527Z,101088.92
2023-01-19T18:29:01.373Z,101091.80
2023-01-19T18:31:29.854Z,101088.10
2023-01-19T18:33:58.818Z,101085.06
2023-01-19T18:36:27.429Z,101090.59
2023-01-19T18:38:55.746Z,101093.21
2023-01-19T18:41:24.317Z,101091.45
2023-01-19T18:43:56.774Z,101090.19
2023-01-19T18:46:26.902Z,101093.03
2023-01-19T18:48:55.234Z,101084.77
2023-01-19T18:51:23.469Z,101080.69
2023-01-19T18:53:52.099Z,101078.08
2023-01-19T18:56:20.368Z,101073.36
2023-01-19T18:58:48.580Z,101072.35
2023-01-19T19:01:20.451Z,101065.66
2023-01-19T19:03:48.823Z,101052.39
2023-01-19T19:06:18.361Z,101051.92
2023-01-19T19:08:55.907Z,101055.41
2023-01-19T19:11:25.532Z,101063.66
2023-01-19T19:13:56.993Z,101058.98
2023-01-19T19:16:25.648Z,101062.67
2023-01-19T19:18:54.022Z,101054.14
2023-01-19T19:21:23.521Z,101056.19
2023-01-19T19:23:54.470Z,101055.30
2023-01-19T19:26:25.883Z,101052.23
2023-01-19T19:28:55.448Z,101054.73
2023-01-19T19:31:27.078Z,101060.57
2023-01-19T19:33:57.233Z,101057.43
2023-01-19T19:36:28.802Z,101048.16
2023-01-19T19:38:59.552Z,101043.56
2023-01-19T19:41:28.884Z,101040.38
2023-01-19T19:43:57.128Z,101044.48
2023-01-19T19:46:26.591Z,101039.52
2023-01-19T19:48:56.160Z,101036.67
2023-01-19T19:51:27.761Z,101036.20
2023-01-19T19:53:58.422Z,101026.67
2023-01-19T19:56:30.225Z,101015.52
2023-01-19T19:58:59.977Z,101021.27
2023-01-19T20:01:32.961Z,101014.83
2023-01-19T20:04:10.963Z,101009.39
2023-01-19T20:06:41.704Z,101007.77
2023-01-19T20:09:12.452Z,101002.48
2023-01-19T20:11:42.201Z,101004.39
2023-01-19T20:14:13.276Z,101005.30
2023-01-19T20:16:42.934Z,101012.91
2023-01-19T20:19:11.916Z,101020.39
2023-01-19T20:21:42.081Z,101023.42
2023-01-19T20:24:17.617Z,101019.12
2023-01-19T20:26:50.015Z,101008.98
2023-01-19T20:29:20.177Z,101004.42
2023-01-19T20:31:53.522Z,101008.52
2023-01-19T20:34:26.472Z,101005.86
2023-01-19T20:36:55.647Z,101011.13
2023-01-19T20:39:24.674Z,101014.56
2023-01-19T20:41:53.804Z,101016.66
2023-01-19T20:44:25.612Z,101016.52
2023-01-19T20:46:54.951Z,101018.29
2023-01-19T20:49:23.687Z,101013.08
2023-01-19T20:51:52.281Z,101007.20
2023-01-19T20:54:24.495Z,101008.90
2023-01-19T20:56:52.997Z,101001.57
2023-01-19T20:59:21.670Z,100988.41
2023-01-19T21:01:50.689Z,100982.44
2023-01-19T21:04:19.331Z,100976.55
2023-01-19T21:06:47.659Z,100970.19
2023-01-19T21:09:15.959Z,100967.34
2023-01-19T21:11:45.487Z,100969.06
2023-01-19T21:14:15.307Z,100963.48
2023-01-19T21:16:43.616Z,100965.41
2023-01-19T21:19:12.083Z,100963.91
2023-01-19T21:21:40.746Z,100957.52
2023-01-19T21:24:10.832Z,100951.31
2023-01-19T21:26:39.300Z,100941.33
2023-01-19T21:29:09.344Z,100940.59
2023-01-19T21:31:38.065Z,100924.90
2023-01-19T21:34:07.138Z,100921.56
2023-01-19T21:36:36.260Z,100914.61
2023-01-19T21:39:04.476Z,100930.53
2023-01-19T21:41:32.727Z,100926.59
2023-01-19T21:44:01.787Z,100915.60
2023-01-19T21:46:30.577Z,100906.71
2023-01-19T21:49:01.327Z,100901.29
2023-01-19T21:51:32.287Z,100904.33
2023-01-19T21:54:05.199Z,100907.51
2023-01-19T21:56:34.912Z,100915.37
2023-01-19T21:59:03.185Z,100907.70
2023-01-19T22:01:33.489Z,100901.00
2023-01-19T22:04:02.601Z,100905.39
2023-01-19T22:06:30.932Z,100895.20
2023-01-19T22:08:59.484Z,100897.89
2023-01-19T22:11:29.005Z,100906.40
2023-01-19T22:13:57.608Z,100898.64
2023-01-19T22:16:28.434Z,100898.61
2023-01-19T22:19:01.564Z,100894.02
2023-01-19T22:21:34.174Z,100887.64
2023-01-19T22:24:04.553Z,100900.14
2023-01-19T22:26:33.708Z,100906.73
2023-01-19T22:29:03.838Z,100917.67
2023-01-19T22:31:32.722Z,100925.48
2023-01-19T22:34:01.055Z,100912.86
2023-01-19T22:36:31.590Z,100915.27
2023-01-19T22:39:11.041Z,100901.31
2023-01-19T22:41:41.754Z,100891.98
2023-01-19T22:44:19.052Z,100894.73
2023-01-19T22:46:48.778Z,100885.92
2023-01-19T22:49:18.516Z,100880.90
2023-01-19T22:51:47.704Z,100877.69
2023-01-19T22:54:15.959Z,100872.92
2023-01-19T22:56:44.254Z,100858.38
2023-01-19T22:59:12.671Z,100859.35
2023-01-19T23:01:42.799Z,100860.27
2023-01-19T23:04:14.504Z,100856.77
2023-01-19T23:06:43.390Z,100861.00
2023-01-19T23:09:14.317Z,100853.90
2023-01-19T23:11:45.756Z,100851.90
2023-01-19T23:14:17.197Z,100853.16
2023-01-19T23:16:45.998Z,100843.98
2023-01-19T23:19:14.709Z,100834.98
2023-01-19T23:21:43.878Z,100828.70
2023-01-19T23:24:13.080Z,100832.16
2023-01-19T23:26:41.483Z,100827.31
2023-01-19T23:29:15.075Z,100821.56
2023-01-19T23:31:46.884Z,100819.23
2023-01-19T23:34:15.497Z,100809.45
2023-01-19T23:36:44.939Z,100800.86
2023-01-19T23:39:21.899Z,100809.11
2023-01-19T23:41:50.136Z,100805.90
2023-01-19T23:44:18.744Z,100792.53
2023-01-19T23:46:47.821Z,100793.55
2023-01-19T23:49:16.537Z,100781.44
2023-01-19T23:51:44.807Z,100790.42
2023-01-19T23:54:14.075Z,100787.98
2023-01-19T23:56:42.525Z,100780.89
2023-01-19T23:59:13.363Z,100762.08
